x

South Bermuda - 300 Nm Sse Of Bermuda (41049) Wave Buoy

7:50am - Fri 25th Apr 2014 All times are UTC.

  • Sig Wave height 8.9ft
  • Swell Direction
  • Peak Period 10s
  • Average Period 7s
  • Wind
    16mph, 20mph gusts
  • Sea Temp 74°f
  • Air Temp 71°f
  • Sea Pressure 1014.5mb

More Historic Weather Station data

Upgrade to MSW Pro to gain access to the past 30 days of data for over 8000 Wavebouys and Weather Stations around the globe.

Join Pro

Comparision Forecast

View Surf forecast
   
Fri 04/25 7:50am 9ft 10s 7s 16 20 mph 1014.5mb 74f 71f
6:50am 8ft 10s 7s 18 22 mph 1014.5mb 74f 71f
5:50am 7.5ft 8s 7s 18 22 mph 1014.6mb 74f 71f
4:50am 7ft 9s 6s 18 22 mph 1015.1mb 74f 72f
3:50am 7ft 8s 6s 18 22 mph 1015.6mb 74f 72f
2:50am 6ft 7s 6s 16 18 mph 1015.8mb 75f 72f
1:50am 5.5ft 7s 6s 16 18 mph 1016.1mb 75f 73f
12:50am 6ft 8s 6s 16 18 mph 1015.6mb 75f 73f
Thu 04/24 11:50pm 5.5ft 7s 6s 16 18 mph 1015mb 75f 73f
10:50pm 5ft 6s 5s 16 18 mph 1014.6mb 75f 73f
9:50pm 5ft 14s 6s 13 18 mph 1014.3mb 75f 73f
8:50pm 4.5ft 7s 5s 16 18 mph 1013.9mb 75f 73f
7:50pm 5ft 7s 5s 18 20 mph 1013.5mb 75f 74f
6:50pm 4.5ft 6s 5s 16 20 mph 1013.5mb 75f 75f
5:50pm 5ft 6s 5s 16 20 mph 1014mb 75f 75f
4:50pm 5ft 6s 5s 18 20 mph 1014.2mb 75f 75f
3:50pm 5ft 14s 5s 18 22 mph 1014.5mb 75f 75f
2:50pm 5ft 6s 5s 18 20 mph 1014.6mb 75f 75f
1:50pm 5ft 6s 6s 13 16 mph 1014.9mb 75f 73f
12:50pm 5ft 7s 5s 18 20 mph 1014.4mb 75f 75f
11:50am 5ft 6s 6s 18 22 mph 1013.9mb 75f 75f
10:50am 5ft 7s 6s 18 20 mph 1013.3mb 75f 75f
9:50am 5ft 15s 6s 18 20 mph 1012.7mb 75f 74f
8:50am 5ft 7s 5s 16 18 mph 1012.2mb 75f 72f
7:50am 5ft 13s 6s 22 31 mph 1011.7mb 75f 74f
6:50am 5ft 15s 6s 20 22 mph 1011.6mb 75f 75f
5:50am 5ft 7s 6s 16 20 mph 1011.9mb 75f 75f
4:50am 5.5ft 7s 6s 16 20 mph 1012.4mb 75f 75f
3:50am 5.5ft 8s 6s 18 20 mph 1012.7mb 75f 75f
2:50am 6ft 7s 6s 16 20 mph 1012.9mb 75f 75f
1:50am 5ft 7s 6s 16 20 mph 1012.9mb 75f 75f
12:50am 5ft 8s 6s 16 18 mph 1012.4mb 75f 75f
Wed 04/23 11:50pm 5.5ft 8s 6s 18 20 mph 1012.2mb 75f 75f
10:50pm 6ft 8s 6s 13 18 mph 1012mb 75f 75f
9:50pm 6ft 8s 6s 16 18 mph 1011.6mb 75f 75f
8:50pm 5.5ft 8s 6s 16 18 mph 1011.6mb 75f 75f
7:50pm 5.5ft 8s 6s 18 20 mph 1011.4mb 75f 76f
6:50pm 6ft 8s 6s 18 20 mph 1011.6mb 75f 75f
5:50pm 6ft 7s 6s 16 18 mph 1012.1mb 75f 75f
4:50pm 5.5ft 7s 6s 13 18 mph 1012.4mb 75f 75f
3:50pm 6ft 7s 6s 13 16 mph 1012.7mb 75f 75f
2:50pm 6ft 8s 6s 13 18 mph 1013.1mb 75f 75f
1:50pm 5.5ft 7s 6s 13 16 mph 1012.9mb 75f 75f
12:50pm 6ft 8s 6s 11
mph
1012.6mb 75f 75f
11:50am 6ft 8s 6s 11 13 mph 1012.1mb 74f 75f
10:50am 6.5ft 8s 6s 13 16 mph 1011.5mb 74f 74f
9:50am 6.5ft 8s 7s 11 13 mph 1010.8mb 74f 74f
8:50am 6ft 8s 6s 13 16 mph 1010.3mb 74f 74f
7:50am 6ft 8s 6s 13 16 mph 1009.9mb 74f 74f
6:50am 6.5ft 7s 6s 13 16 mph 1009.7mb 74f 74f
5:50am 6.5ft 8s 6s 13 16 mph 1009.9mb 74f 74f
4:50am 7.5ft 8s 7s 11 13 mph 1010.5mb 74f 75f
3:50am 6.5ft 8s 6s 11 13 mph 1011.1mb 74f 74f
2:50am 7ft 7s 6s 13 20 mph 1011.1mb 74f 74f
1:50am 7ft 8s 6s 11 13 mph 1011mb 74f 75f
12:50am 7ft 7s 6s 11 13 mph 1010.5mb 74f 75f
Tue 04/22 11:50pm 8ft 7s 6s 13 16 mph 1009.9mb 74f 75f
10:50pm 8ft 8s 6s 11 13 mph 1009.5mb 74f 75f
9:50pm 7ft 8s 6s 13 16 mph 1009.1mb 74f 75f
8:50pm 8ft 7s 6s 16 18 mph 1008.9mb 74f 75f
7:50pm 8ft 8s 6s 18 22 mph 1008.6mb 74f 75f
6:50pm 9ft 8s 6s 18 20 mph 1008.8mb 74f 75f
5:50pm 8ft 8s 6s 22 27 mph 1009.1mb 74f 74f
4:50pm 9ft 7s 6s 20 25 mph 1009.4mb 74f 74f
3:50pm 8ft 7s 6s 27 34 mph 1010.4mb 74f 73f
2:50pm 9ft 7s 6s 22 29 mph 1010.8mb 74f 73f
1:50pm 8ft 8s 6s 25 31 mph 1010.6mb 74f 75f
12:50pm 7.5ft 7s 6s 25 29 mph 1010.5mb 74f 76f
11:50am 7ft 7s 6s 29 36 mph 1010.2mb 74f 74f
10:50am 7.5ft 7s 6s 25 29 mph 1010.3mb 74f 75f
9:50am 7ft 6s 6s 25 29 mph 1010.1mb 74f 75f
8:50am 7ft 6s 6s 25 29 mph 1010.2mb 74f 76f
7:50am 6ft 8s 6s 22 27 mph 1009.9mb 74f 76f
6:50am 6ft 7s 6s 22 27 mph 1010.7mb 74f 76f
5:50am 6ft 6s 5s 18 25 mph 1011.2mb 74f 75f
4:50am 5.5ft 6s 5s 20 25 mph 1012.1mb 74f 75f
3:50am 5.5ft 6s 5s 16 20 mph 1013.1mb 74f 76f
2:50am 5.5ft 7s 5s 16 18 mph 1013.6mb 74f 76f
1:50am 5ft 8s 5s 16 20 mph 1013.9mb 74f 76f
12:50am 5ft 6s 5s 18 20 mph 1014.2mb 74f 76f
Mon 04/21 11:50pm 5ft 6s 5s 18 20 mph 1014.1mb 74f 76f
10:50pm 5ft 8s 5s 16 18 mph 1014.2mb 74f 76f
9:50pm 5ft 7s 5s 18 20 mph 1014.2mb 74f 76f
8:50pm 5ft 6s 5s 16 20 mph 1014.4mb 74f 75f
7:50pm 5ft 7s 5s 16 18 mph 1014.7mb 74f 76f
6:50pm 5ft 7s 5s 18 22 mph 1015.5mb 74f 74f
5:50pm 5ft 7s 5s 18 22 mph 1015.9mb 75f 76f
4:50pm 5ft 7s 5s 20 25 mph 1016.5mb 75f 75f
3:50pm 5ft 8s 5s 18 22 mph 1017.1mb 75f 75f
2:50pm 5ft 8s 6s 18 20 mph 1017.2mb 75f 75f
1:50pm 5ft 8s 6s 18 20 mph 1017.9mb 75f 75f
12:50pm 4.5ft 8s 6s 16 20 mph 1018.1mb 75f 75f
11:50am 4.5ft 7s 6s 16 18 mph 1018.2mb 75f 75f
10:50am 4.5ft 7s 6s 13 16 mph 1018.7mb 75f 75f
9:50am 5ft 8s 6s 13 16 mph 1018.4mb 75f 75f